Azamara Journey — 9HOB8 — position and weather

sailwx.info

Track history (hours):
 
Tides and Currents Weather Stations Pressure Air Temp Water Temp Dewpoint Dewpoint Depression Visibility Wind Speed Wind Dir Waves Ship Positions

Azamara Journey

Last reported at 2020-Jun-24 11:14 UTC. Time now 2020-Sep-25 16:54 UTC.
Position N 55°58' W 004°50'.
Warning: this ship's position is months out of date.

Type: Passenger vessel. MMSI: 256204000.

Date/timePositionNaut miles runAvg speedWind from/ knotsBaromVisibWave heightAir tempDewpointWater temp
2020-Jun-24 11:14N 55°58' W 004°50'1512.6
2020-Jun-24 10:00N 55°44' W 004°59'42 6.6
2020-Jun-24 03:41N 55°03' W 005°20'38 6.7
2020-Jun-23 21:58N 54°25' W 005°15'3 7.2
2020-Jun-23 21:30N 54°22' W 005°15'7 0.4
2020-Jun-23 05:26N 54°15' W 005°18'3 7.4
2020-Jun-23 05:00N 54°19' W 005°18'9 8.2
2020-Jun-23 03:51N 54°28' W 005°18'7 7.9
2020-Jun-23 02:58N 54°35' W 005°19'10 7.0
2020-Jun-23 01:31N 54°45' W 005°25'36 8.1
2020-Jun-22 21:05N 55°15' W 005°59'1 9.9
2020-Jun-22 20:57N 55°16' W 006°00'510.2
2020-Jun-22 20:30N 55°19' W 006°05'4 9.0
2020-Jun-22 20:00N 55°22' W 006°12'7 1.9
2020-Jun-22 16:30N 55°22' W 006°00'71 9.5
2020-Jun-22 09:01N 54°16' W 005°17'58 9.9
2020-Jun-22 03:10N 53°18' W 005°24'213.1
2020-Jun-22 03:00N 53°16' W 005°24'1912.5
2020-Jun-22 01:30N 52°57' W 005°29'612.4
2020-Jun-22 01:00N 52°51' W 005°31'  
2020-Jun-19 16:56N 39°34' W 009°52'1314.2
2020-Jun-19 16:03N 39°22' W 009°53'1514.2
2020-Jun-19 15:00N 39°07' W 009°52'5714.2
2020-Jun-19 11:00N 38°11' W 009°42'1414.4
2020-Jun-19 10:00N 37°56' W 009°38'1514.8
2020-Jun-19 09:00N 37°42' W 009°34'714.7
2020-Jun-19 08:30N 37°35' W 009°32'220 8.4
2020-Jun-18 06:16N 36°05' W 005°21'13 7.6
2020-Jun-18 04:30N 36°06' W 005°04'15 7.5
2020-Jun-18 02:30N 36°09' W 004°46'1412.9
2020-Jun-18 01:26N 36°11' W 004°29'8213.7
2020-Jun-17 19:25N 36°22' W 002°48'714.9
2020-Jun-17 18:57N 36°23' W 002°40'615.0
2020-Jun-17 18:31N 36°24' W 002°32'1714.6
2020-Jun-17 17:20N 36°26' W 002°10'33711.8
2020-Jun-16 12:41N 37°26' E 004°45'2911.1
2020-Jun-16 10:04N 37°30' E 005°21'383 9.3
2020-Jun-14 17:00N 36°55' E 013°21'14 9.1
2020-Jun-14 15:30N 36°52' E 013°37'19 9.5
2020-Jun-14 13:30N 36°48' E 014°00'1010.0
2020-Jun-14 12:30N 36°46' E 014°12'1010.2
2020-Jun-14 11:30N 36°44' E 014°25'  
Track history (hours):
 
Tides and Currents Weather Stations Pressure Air Temp Water Temp Dewpoint Dewpoint Depression Visibility Wind Speed Wind Dir Waves Ship Positions

Azamara Journey

Last reported at 2020-Jun-24 11:14 UTC. Time now 2020-Sep-25 16:54 UTC.
Position N 55°58' W 004°50'.
Warning: this ship's position is months out of date.

Type: Passenger vessel. MMSI: 256204000.

Date/timePositionNaut miles runAvg speedWind from/ knotsBaromVisibWave heightAir tempDewpointWater temp
2020-Jun-24 11:14N 55°58' W 004°50'1512.6
2020-Jun-24 10:00N 55°44' W 004°59'42 6.6
2020-Jun-24 03:41N 55°03' W 005°20'38 6.7
2020-Jun-23 21:58N 54°25' W 005°15'3 7.2
2020-Jun-23 21:30N 54°22' W 005°15'7 0.4
2020-Jun-23 05:26N 54°15' W 005°18'3 7.4
2020-Jun-23 05:00N 54°19' W 005°18'9 8.2
2020-Jun-23 03:51N 54°28' W 005°18'7 7.9
2020-Jun-23 02:58N 54°35' W 005°19'10 7.0
2020-Jun-23 01:31N 54°45' W 005°25'36 8.1
2020-Jun-22 21:05N 55°15' W 005°59'1 9.9
2020-Jun-22 20:57N 55°16' W 006°00'510.2
2020-Jun-22 20:30N 55°19' W 006°05'4 9.0
2020-Jun-22 20:00N 55°22' W 006°12'7 1.9
2020-Jun-22 16:30N 55°22' W 006°00'71 9.5
2020-Jun-22 09:01N 54°16' W 005°17'58 9.9
2020-Jun-22 03:10N 53°18' W 005°24'213.1
2020-Jun-22 03:00N 53°16' W 005°24'1912.5
2020-Jun-22 01:30N 52°57' W 005°29'612.4
2020-Jun-22 01:00N 52°51' W 005°31'  
2020-Jun-19 16:56N 39°34' W 009°52'1314.2
2020-Jun-19 16:03N 39°22' W 009°53'1514.2
2020-Jun-19 15:00N 39°07' W 009°52'5714.2
2020-Jun-19 11:00N 38°11' W 009°42'1414.4
2020-Jun-19 10:00N 37°56' W 009°38'1514.8
2020-Jun-19 09:00N 37°42' W 009°34'714.7
2020-Jun-19 08:30N 37°35' W 009°32'220 8.4
2020-Jun-18 06:16N 36°05' W 005°21'13 7.6
2020-Jun-18 04:30N 36°06' W 005°04'15 7.5
2020-Jun-18 02:30N 36°09' W 004°46'1412.9
2020-Jun-18 01:26N 36°11' W 004°29'8213.7
2020-Jun-17 19:25N 36°22' W 002°48'714.9
2020-Jun-17 18:57N 36°23' W 002°40'615.0
2020-Jun-17 18:31N 36°24' W 002°32'1714.6
2020-Jun-17 17:20N 36°26' W 002°10'33711.8
2020-Jun-16 12:41N 37°26' E 004°45'2911.1
2020-Jun-16 10:04N 37°30' E 005°21'383 9.3
2020-Jun-14 17:00N 36°55' E 013°21'14 9.1
2020-Jun-14 15:30N 36°52' E 013°37'19 9.5
2020-Jun-14 13:30N 36°48' E 014°00'1010.0
2020-Jun-14 12:30N 36°46' E 014°12'1010.2
2020-Jun-14 11:30N 36°44' E 014°25'  

Dump ship's entire track history